createdAt,value
2022-11-07T00:00:40.577Z,9.13
2022-11-07T00:03:07.881Z,8.70
2022-11-07T00:05:35.107Z,8.38
2022-11-07T00:08:02.330Z,8.95
2022-11-07T00:10:29.538Z,9.00
2022-11-07T00:12:56.747Z,8.77
2022-11-07T00:15:23.893Z,9.98
2022-11-07T00:17:51.059Z,8.95
2022-11-07T00:20:18.222Z,8.75
2022-11-07T00:22:45.402Z,8.90
2022-11-07T00:25:12.512Z,8.45
2022-11-07T00:27:39.888Z,8.43
2022-11-07T00:30:07.413Z,8.43
2022-11-07T00:32:34.599Z,8.20
2022-11-07T00:35:01.812Z,8.23
2022-11-07T00:37:28.968Z,8.95
2022-11-07T00:39:56.125Z,8.02
2022-11-07T00:42:23.229Z,7.97
2022-11-07T00:44:50.381Z,8.75
2022-11-07T00:47:17.603Z,8.38
2022-11-07T00:49:44.842Z,9.07
2022-11-07T00:52:12.109Z,7.75
2022-11-07T00:54:39.316Z,6.85
2022-11-07T00:57:06.542Z,7.30
2022-11-07T00:59:33.732Z,7.00
2022-11-07T01:02:00.937Z,6.80
2022-11-07T01:04:46.842Z,6.20
2022-11-07T01:07:14.222Z,6.75
2022-11-07T01:09:41.377Z,6.90
2022-11-07T01:12:08.534Z,6.60
2022-11-07T01:14:36.588Z,7.03
2022-11-07T01:17:03.934Z,6.75
2022-11-07T01:19:31.139Z,6.93
2022-11-07T01:21:58.395Z,7.15
2022-11-07T01:24:25.656Z,6.60
2022-11-07T01:26:52.904Z,6.75
2022-11-07T01:29:20.200Z,6.70
2022-11-07T01:31:47.845Z,6.85
2022-11-07T01:34:15.041Z,6.30
2022-11-07T01:36:42.217Z,6.50
2022-11-07T01:39:09.654Z,6.18
2022-11-07T01:41:37.678Z,6.35
2022-11-07T01:44:07.785Z,6.30
2022-11-07T01:46:36.990Z,7.18
2022-11-07T01:49:06.867Z,6.65
2022-11-07T01:51:38.154Z,6.57
2022-11-07T01:54:06.165Z,6.68
2022-11-07T01:56:34.801Z,6.57
2022-11-07T01:59:02.895Z,6.78
2022-11-07T02:01:30.301Z,6.45
2022-11-07T02:03:58.411Z,6.53
2022-11-07T02:06:28.688Z,5.97
2022-11-07T02:08:55.926Z,7.20
2022-11-07T02:11:23.459Z,5.97
2022-11-07T02:13:50.593Z,6.88
2022-11-07T02:16:17.951Z,6.20
2022-11-07T02:18:45.911Z,6.57
2022-11-07T02:21:22.951Z,6.03
2022-11-07T02:23:57.573Z,6.15
2022-11-07T02:26:25.350Z,6.30
2022-11-07T02:28:53.819Z,6.40
2022-11-07T02:31:20.967Z,5.97
2022-11-07T02:33:48.188Z,7.18
2022-11-07T02:36:16.696Z,6.80
2022-11-07T02:38:44.922Z,6.47
2022-11-07T02:41:22.664Z,6.40
2022-11-07T02:43:52.969Z,5.78
2022-11-07T02:46:20.894Z,6.10
2022-11-07T02:48:50.370Z,6.10
2022-11-07T02:51:17.546Z,5.70
2022-11-07T02:53:44.737Z,6.10
2022-11-07T02:56:11.872Z,5.53
2022-11-07T02:58:39.215Z,5.78
2022-11-07T03:01:07.229Z,5.70
2022-11-07T03:03:39.134Z,5.78
2022-11-07T03:06:07.113Z,4.70
2022-11-07T03:08:34.689Z,5.30
2022-11-07T03:11:01.978Z,4.55
2022-11-07T03:13:29.412Z,5.07
2022-11-07T03:15:56.701Z,4.43
2022-11-07T03:18:23.933Z,4.90
2022-11-07T03:20:51.152Z,5.22
2022-11-07T03:23:18.485Z,4.45
2022-11-07T03:25:45.723Z,4.72
2022-11-07T03:28:12.961Z,5.50
2022-11-07T03:30:40.216Z,4.70
2022-11-07T03:33:07.613Z,4.95
2022-11-07T03:35:34.756Z,5.03
2022-11-07T03:38:02.045Z,5.32
2022-11-07T03:40:29.269Z,5.10
2022-11-07T03:42:56.641Z,5.50
2022-11-07T03:45:23.861Z,5.28
2022-11-07T03:47:51.096Z,4.85
2022-11-07T03:50:19.631Z,4.72
2022-11-07T03:52:46.949Z,5.35
2022-11-07T03:55:16.151Z,5.00
2022-11-07T03:57:43.543Z,4.57
2022-11-07T04:00:11.523Z,5.25
2022-11-07T04:02:38.874Z,4.13
2022-11-07T04:05:06.419Z,4.28
2022-11-07T04:07:33.636Z,3.72
2022-11-07T04:10:00.785Z,4.30
2022-11-07T04:12:46.369Z,4.28
2022-11-07T04:15:33.068Z,4.40
2022-11-07T04:18:00.622Z,3.88
2022-11-07T04:20:28.332Z,3.55
2022-11-07T04:22:55.498Z,3.55
2022-11-07T04:25:42.645Z,3.40
2022-11-07T04:28:09.782Z,3.63
2022-11-07T04:30:36.912Z,3.20
2022-11-07T04:33:04.280Z,4.90
2022-11-07T04:35:32.625Z,3.53
2022-11-07T04:38:00.548Z,3.22
2022-11-07T04:40:27.973Z,3.03
2022-11-07T04:42:55.359Z,3.80
2022-11-07T04:45:22.818Z,3.10
2022-11-07T04:47:50.041Z,3.40
2022-11-07T04:50:18.659Z,2.92
2022-11-07T04:52:46.837Z,2.70
2022-11-07T04:55:19.387Z,2.60
2022-11-07T04:57:46.662Z,3.05
2022-11-07T05:00:14.099Z,2.65
2022-11-07T05:02:41.330Z,2.15
2022-11-07T05:05:08.767Z,2.25
2022-11-07T05:07:35.931Z,2.42
2022-11-07T05:10:03.065Z,2.33
2022-11-07T05:12:30.319Z,2.47
2022-11-07T05:14:57.543Z,2.00
2022-11-07T05:17:27.962Z,2.35
2022-11-07T05:19:55.419Z,2.58
2022-11-07T05:22:41.312Z,4.57
2022-11-07T05:25:08.824Z,3.95
2022-11-07T05:27:35.970Z,4.20
2022-11-07T05:30:03.509Z,2.28
2022-11-07T05:32:30.617Z,3.05
2022-11-07T05:34:57.830Z,2.95
2022-11-07T05:37:25.040Z,2.67
2022-11-07T05:39:55.064Z,2.10
2022-11-07T05:42:22.462Z,2.45
2022-11-07T05:44:49.684Z,2.50
2022-11-07T05:47:16.815Z,2.72
2022-11-07T05:49:43.943Z,2.50
2022-11-07T05:52:11.109Z,2.90
2022-11-07T05:54:38.250Z,2.42
2022-11-07T05:57:05.384Z,2.40
2022-11-07T05:59:32.553Z,2.55
2022-11-07T06:01:59.777Z,2.72
2022-11-07T06:04:26.996Z,3.10
2022-11-07T06:06:54.246Z,2.72
2022-11-07T06:09:21.505Z,3.05
2022-11-07T06:11:48.741Z,2.67
2022-11-07T06:14:15.968Z,2.78
2022-11-07T06:16:43.208Z,2.80
2022-11-07T06:19:10.391Z,2.53
2022-11-07T06:21:37.601Z,3.38
2022-11-07T06:24:04.815Z,2.55
2022-11-07T06:26:31.969Z,2.55
2022-11-07T06:28:59.124Z,2.90
2022-11-07T06:31:26.242Z,3.30
2022-11-07T06:33:53.419Z,2.80
2022-11-07T06:36:20.591Z,2.55
2022-11-07T06:38:53.064Z,2.50
2022-11-07T06:41:20.387Z,2.38
2022-11-07T06:43:47.633Z,6.88
2022-11-07T06:46:17.221Z,4.80
2022-11-07T06:48:44.390Z,3.17
2022-11-07T06:51:12.199Z,3.28
2022-11-07T06:53:39.618Z,3.10
2022-11-07T06:56:07.850Z,3.65
2022-11-07T06:58:35.152Z,2.83
2022-11-07T07:01:02.987Z,3.33
2022-11-07T07:03:30.357Z,3.47
2022-11-07T07:06:02.021Z,3.00
2022-11-07T07:08:29.194Z,3.15
2022-11-07T07:10:56.343Z,3.03
2022-11-07T07:13:23.501Z,3.20
2022-11-07T07:15:57.790Z,3.33
2022-11-07T07:18:25.400Z,4.07
2022-11-07T07:20:53.158Z,3.53
2022-11-07T07:23:21.520Z,2.95
2022-11-07T07:25:49.294Z,3.13
2022-11-07T07:28:16.455Z,3.05
2022-11-07T07:30:47.354Z,3.33
2022-11-07T07:33:18.115Z,3.10
2022-11-07T07:35:45.692Z,3.05
2022-11-07T07:38:13.123Z,2.33
2022-11-07T07:40:40.341Z,2.90
2022-11-07T07:43:07.580Z,2.85
2022-11-07T07:45:34.794Z,3.47
2022-11-07T07:48:05.198Z,2.92
2022-11-07T07:50:32.336Z,2.78
2022-11-07T07:53:01.500Z,2.42
2022-11-07T07:55:30.848Z,2.28
2022-11-07T07:57:58.011Z,1.90
2022-11-07T08:00:25.209Z,1.85
2022-11-07T08:02:52.400Z,1.90
2022-11-07T08:05:19.788Z,1.70
2022-11-07T08:07:51.581Z,1.83
2022-11-07T08:10:40.735Z,1.73
2022-11-07T08:13:06.906Z,1.70
2022-11-07T08:15:34.106Z,2.72
2022-11-07T08:18:02.217Z,1.85
2022-11-07T08:20:29.468Z,1.70
2022-11-07T08:23:04.152Z,1.77
2022-11-07T08:25:31.705Z,1.70
2022-11-07T08:27:59.117Z,1.20
2022-11-07T08:30:26.989Z,1.77
2022-11-07T08:32:54.304Z,1.90
2022-11-07T08:35:21.476Z,2.00
2022-11-07T08:37:48.614Z,1.52
2022-11-07T08:40:15.871Z,2.10
2022-11-07T08:42:44.147Z,1.05
2022-11-07T08:45:11.435Z,1.10
2022-11-07T08:47:38.712Z,1.45
2022-11-07T08:50:06.469Z,1.70
2022-11-07T08:52:34.977Z,1.80
2022-11-07T08:55:02.374Z,1.23
2022-11-07T08:57:29.644Z,1.50
2022-11-07T08:59:56.898Z,1.73
2022-11-07T09:03:12.596Z,1.58
2022-11-07T09:05:11.367Z,1.65
2022-11-07T09:07:39.756Z,1.45
2022-11-07T09:10:07.114Z,1.80
2022-11-07T09:12:34.348Z,1.67
2022-11-07T09:15:01.550Z,1.30
2022-11-07T09:17:29.023Z,1.42
2022-11-07T09:19:56.187Z,1.50
2022-11-07T09:22:23.556Z,1.90
2022-11-07T09:24:50.673Z,2.03
2022-11-07T09:27:17.951Z,1.50
2022-11-07T09:29:45.220Z,1.58
2022-11-07T09:32:38.662Z,1.25
2022-11-07T09:35:04.738Z,1.30
2022-11-07T09:37:32.317Z,1.10
2022-11-07T09:39:59.605Z,1.10
2022-11-07T09:42:30.706Z,1.67
2022-11-07T09:44:58.878Z,1.33
2022-11-07T09:47:26.228Z,1.52
2022-11-07T09:49:56.428Z,1.20
2022-11-07T09:52:31.100Z,1.60
2022-11-07T09:55:18.683Z,1.50
2022-11-07T09:57:46.402Z,1.55
2022-11-07T10:00:18.899Z,1.70
2022-11-07T10:02:48.063Z,1.67
2022-11-07T10:05:16.805Z,1.50
2022-11-07T10:07:56.474Z,1.98
2022-11-07T10:10:32.931Z,1.88
2022-11-07T10:13:00.139Z,1.77
2022-11-07T10:15:50.885Z,2.22
2022-11-07T10:18:44.638Z,1.50
2022-11-07T10:21:36.553Z,1.73
2022-11-07T10:24:17.853Z,2.20
2022-11-07T10:26:45.821Z,1.10
2022-11-07T10:29:17.635Z,1.50
2022-11-07T10:32:00.278Z,2.03
2022-11-07T10:34:32.673Z,1.50
2022-11-07T10:37:00.550Z,1.35
2022-11-07T10:39:30.745Z,1.40
2022-11-07T10:42:16.950Z,3.03
2022-11-07T10:44:44.629Z,1.20
2022-11-07T10:47:16.307Z,2.13
2022-11-07T10:49:54.094Z,2.10
2022-11-07T10:52:21.484Z,2.35
2022-11-07T10:54:48.947Z,2.30
2022-11-07T10:57:20.540Z,1.20
2022-11-07T10:59:50.789Z,1.23
2022-11-07T11:02:31.959Z,2.78
2022-11-07T11:05:00.557Z,1.85
2022-11-07T11:07:36.195Z,1.50
2022-11-07T11:10:04.059Z,1.17
2022-11-07T11:12:36.558Z,2.03
2022-11-07T11:15:11.526Z,4.13
2022-11-07T11:17:39.313Z,1.70
2022-11-07T11:20:07.520Z,1.30
2022-11-07T11:22:40.248Z,1.23
2022-11-07T11:25:20.629Z,1.80
2022-11-07T11:27:49.993Z,1.10
2022-11-07T11:30:21.146Z,1.20
2022-11-07T11:32:54.238Z,1.23
2022-11-07T11:35:24.481Z,1.60
2022-11-07T11:37:58.328Z,1.23
2022-11-07T11:40:29.341Z,1.50
2022-11-07T11:43:29.902Z,1.35
2022-11-07T11:46:09.971Z,2.63
2022-11-07T11:48:41.738Z,1.30
2022-11-07T11:51:12.218Z,1.17
2022-11-07T11:53:39.746Z,0.90
2022-11-07T11:56:07.010Z,1.10
2022-11-07T11:58:40.293Z,1.50
2022-11-07T12:01:13.695Z,1.48
2022-11-07T12:03:56.978Z,1.17
2022-11-07T12:06:49.295Z,1.25
2022-11-07T12:09:25.663Z,1.75
2022-11-07T12:11:56.039Z,1.52
2022-11-07T12:14:26.596Z,1.00
2022-11-07T12:16:53.823Z,1.50
2022-11-07T12:19:24.053Z,1.48
2022-11-07T12:22:09.986Z,0.90
2022-11-07T12:24:40.371Z,1.05
2022-11-07T12:27:07.582Z,1.30
2022-11-07T12:29:40.764Z,1.40
2022-11-07T12:32:07.972Z,1.30
2022-11-07T12:34:35.213Z,0.80
2022-11-07T12:37:10.651Z,0.88
2022-11-07T12:39:55.029Z,1.15
2022-11-07T12:42:34.523Z,2.17
2022-11-07T12:45:20.402Z,1.00
2022-11-07T12:48:11.988Z,1.02
2022-11-07T12:50:56.140Z,1.17
2022-11-07T12:53:23.325Z,1.30
2022-11-07T12:56:02.812Z,1.30
2022-11-07T12:58:32.060Z,1.02
2022-11-07T13:01:00.873Z,0.90
2022-11-07T13:03:51.080Z,1.38
2022-11-07T13:06:31.645Z,1.40
2022-11-07T13:09:01.663Z,1.30
2022-11-07T13:11:34.971Z,1.73
2022-11-07T13:14:02.451Z,1.50
2022-11-07T13:16:31.035Z,0.80
2022-11-07T13:19:09.145Z,1.05
2022-11-07T13:21:43.679Z,1.65
2022-11-07T13:24:21.669Z,1.10
2022-11-07T13:26:49.256Z,1.40
2022-11-07T13:29:24.566Z,1.20
2022-11-07T13:32:10.723Z,1.33
2022-11-07T13:34:50.320Z,1.35
2022-11-07T13:37:38.136Z,1.45
2022-11-07T13:40:11.492Z,1.10
2022-11-07T13:42:41.131Z,1.45
2022-11-07T13:45:32.930Z,1.63
2022-11-07T13:48:01.294Z,1.13
2022-11-07T13:50:36.281Z,1.17
2022-11-07T13:53:05.559Z,1.60
2022-11-07T13:55:39.222Z,1.17
2022-11-07T14:00:34.871Z,1.85
2022-11-07T14:03:02.618Z,1.33
2022-11-07T14:05:36.696Z,1.40
2022-11-07T14:08:06.415Z,2.20
2022-11-07T14:10:36.906Z,3.15
2022-11-07T14:13:10.405Z,2.00
2022-11-07T14:15:44.030Z,1.30
2022-11-07T14:20:38.677Z,1.40
2022-11-07T14:23:12.889Z,1.30
2022-11-07T14:25:40.905Z,1.23
2022-11-07T14:28:15.757Z,0.88
2022-11-07T14:30:43.383Z,1.50
2022-11-07T14:33:28.632Z,1.42
2022-11-07T14:35:56.028Z,1.65
2022-11-07T14:38:25.455Z,1.70
2022-11-07T14:40:54.271Z,0.98
2022-11-07T14:43:22.669Z,1.80
2022-11-07T14:46:12.467Z,2.30
2022-11-07T14:48:39.261Z,1.23
2022-11-07T14:51:06.793Z,2.03
2022-11-07T14:53:43.016Z,1.50
2022-11-07T14:56:12.901Z,1.75
2022-11-07T14:58:40.169Z,1.00
2022-11-07T15:01:07.435Z,1.15
2022-11-07T15:03:36.262Z,1.60
2022-11-07T15:06:03.580Z,1.80
2022-11-07T15:08:31.964Z,0.95
2022-11-07T15:11:02.314Z,1.25
2022-11-07T15:13:33.556Z,1.58
2022-11-07T15:16:02.435Z,1.75
2022-11-07T15:18:30.092Z,1.27
2022-11-07T15:21:01.586Z,1.42
2022-11-07T15:23:31.352Z,1.10
2022-11-07T15:26:18.875Z,1.90
2022-11-07T15:28:47.897Z,1.10
2022-11-07T15:31:38.304Z,1.25
2022-11-07T15:34:06.990Z,0.80
2022-11-07T15:36:38.540Z,1.00
2022-11-07T15:41:49.612Z,1.23
2022-11-07T15:44:17.147Z,1.35
2022-11-07T15:46:44.365Z,1.20
2022-11-07T15:49:12.086Z,1.52
2022-11-07T15:51:39.325Z,1.42
2022-11-07T15:54:10.337Z,1.40
2022-11-07T15:56:37.582Z,1.30
2022-11-07T15:59:04.754Z,1.25
2022-11-07T16:01:31.941Z,1.00
2022-11-07T16:03:59.172Z,1.70
2022-11-07T16:06:31.265Z,1.42
2022-11-07T16:08:58.890Z,1.58
2022-11-07T16:11:26.220Z,0.80
2022-11-07T16:14:08.909Z,1.92
2022-11-07T16:16:41.192Z,0.90
2022-11-07T16:19:12.045Z,1.85
2022-11-07T16:21:39.194Z,1.23
2022-11-07T16:24:06.528Z,1.95
2022-11-07T16:26:33.761Z,2.00
2022-11-07T16:29:00.935Z,1.70
2022-11-07T16:31:28.802Z,2.45
2022-11-07T16:33:56.028Z,2.70
2022-11-07T16:36:30.625Z,1.67
2022-11-07T16:38:57.786Z,2.72
2022-11-07T16:41:24.990Z,2.50
2022-11-07T16:43:52.265Z,1.80
2022-11-07T16:46:21.335Z,1.70
2022-11-07T16:48:49.918Z,2.88
2022-11-07T16:51:18.244Z,1.60
2022-11-07T16:53:45.716Z,1.85
2022-11-07T16:56:24.719Z,1.90
2022-11-07T16:58:54.481Z,1.95
2022-11-07T17:01:23.278Z,2.08
2022-11-07T17:03:50.688Z,1.40
2022-11-07T17:06:22.998Z,1.80
2022-11-07T17:08:50.205Z,1.40
2022-11-07T17:11:18.235Z,1.67
2022-11-07T17:13:45.965Z,1.20
2022-11-07T17:16:18.698Z,1.30
2022-11-07T17:18:47.045Z,1.40
2022-11-07T17:21:25.529Z,1.75
2022-11-07T17:23:53.819Z,1.60
2022-11-07T17:26:22.289Z,1.70
2022-11-07T17:28:49.997Z,1.83
2022-11-07T17:31:17.267Z,1.50
2022-11-07T17:33:44.625Z,1.92
2022-11-07T17:36:24.372Z,1.77
2022-11-07T17:38:53.043Z,1.27
2022-11-07T17:41:21.905Z,1.23
2022-11-07T17:43:50.747Z,1.52
2022-11-07T17:46:25.206Z,1.38
2022-11-07T17:48:53.741Z,1.70
2022-11-07T17:51:21.439Z,1.58
2022-11-07T17:53:48.959Z,1.70
2022-11-07T17:56:17.863Z,1.63
2022-11-07T17:58:45.863Z,1.75
2022-11-07T18:01:17.460Z,1.70
2022-11-07T18:03:44.980Z,1.40
2022-11-07T18:06:12.229Z,1.50
2022-11-07T18:08:51.815Z,1.50
2022-11-07T18:11:20.352Z,2.13
2022-11-07T18:13:47.548Z,2.00
2022-11-07T18:16:16.270Z,2.03
2022-11-07T18:18:43.694Z,1.70
2022-11-07T18:21:11.078Z,2.10
2022-11-07T18:23:38.246Z,1.88
2022-11-07T18:26:06.943Z,1.73
2022-11-07T18:28:35.351Z,2.08
2022-11-07T18:31:06.420Z,1.80
2022-11-07T18:33:33.703Z,1.70
2022-11-07T18:36:01.481Z,2.53
2022-11-07T18:38:28.957Z,1.60
2022-11-07T18:41:00.118Z,1.55
2022-11-07T18:43:27.450Z,1.70
2022-11-07T18:45:55.284Z,2.15
2022-11-07T18:48:22.734Z,2.03
2022-11-07T18:50:50.229Z,1.88
2022-11-07T18:53:18.287Z,1.67
2022-11-07T18:55:45.466Z,1.67
2022-11-07T18:58:12.642Z,2.05
2022-11-07T19:00:39.837Z,1.75
2022-11-07T19:03:07.098Z,1.98
2022-11-07T19:05:40.028Z,1.85
2022-11-07T19:08:08.249Z,1.67
2022-11-07T19:10:35.467Z,1.60
2022-11-07T19:13:07.850Z,1.52
2022-11-07T19:15:38.430Z,2.20
2022-11-07T19:18:05.613Z,1.65
2022-11-07T19:20:32.825Z,1.83
2022-11-07T19:23:00.002Z,2.05
2022-11-07T19:25:27.224Z,2.53
2022-11-07T19:27:54.350Z,4.75
2022-11-07T19:30:21.522Z,2.40
2022-11-07T19:32:48.717Z,2.00
2022-11-07T19:35:16.260Z,1.90
2022-11-07T19:37:43.443Z,3.03
2022-11-07T19:40:11.051Z,2.40
2022-11-07T19:42:38.203Z,2.03
2022-11-07T19:45:05.604Z,1.70
2022-11-07T19:47:32.872Z,2.72
2022-11-07T19:50:01.205Z,2.50
2022-11-07T19:52:28.378Z,2.63
2022-11-07T19:54:55.560Z,3.20
2022-11-07T19:57:22.775Z,2.00
2022-11-07T19:59:49.925Z,1.67
2022-11-07T20:02:35.365Z,1.55
2022-11-07T20:05:04.696Z,1.75
2022-11-07T20:07:31.877Z,2.15
2022-11-07T20:09:59.270Z,2.03
2022-11-07T20:12:26.409Z,2.22
2022-11-07T20:14:54.014Z,1.85
2022-11-07T20:17:21.157Z,1.60
2022-11-07T20:19:48.328Z,2.03
2022-11-07T20:22:15.469Z,1.40
2022-11-07T20:24:42.684Z,2.05
2022-11-07T20:27:09.858Z,1.73
2022-11-07T20:29:37.686Z,1.63
2022-11-07T20:32:04.942Z,3.05
2022-11-07T20:34:32.147Z,1.90
2022-11-07T20:36:59.265Z,1.77
2022-11-07T20:39:26.432Z,1.60
2022-11-07T20:41:53.985Z,1.50
2022-11-07T20:44:22.832Z,2.22
2022-11-07T20:46:51.683Z,1.73
2022-11-07T20:49:18.977Z,2.13
2022-11-07T20:51:46.153Z,2.20
2022-11-07T20:54:14.280Z,2.20
2022-11-07T20:56:42.560Z,2.30
2022-11-07T20:59:10.360Z,2.17
2022-11-07T21:01:37.861Z,2.17
2022-11-07T21:04:06.179Z,2.40
2022-11-07T21:06:33.416Z,2.08
2022-11-07T21:09:00.669Z,1.98
2022-11-07T21:11:29.240Z,2.03
2022-11-07T21:13:56.473Z,1.65
2022-11-07T21:16:23.791Z,1.92
2022-11-07T21:18:52.020Z,1.75
2022-11-07T21:21:20.922Z,3.03
2022-11-07T21:23:48.872Z,2.40
2022-11-07T21:26:17.353Z,2.45
2022-11-07T21:28:44.569Z,2.05
2022-11-07T21:31:13.385Z,2.00
2022-11-07T21:33:42.118Z,2.08
2022-11-07T21:36:13.219Z,2.50
2022-11-07T21:38:40.403Z,1.77
2022-11-07T21:41:08.440Z,2.20
2022-11-07T21:43:35.848Z,1.73
2022-11-07T21:46:07.133Z,2.30
2022-11-07T21:48:35.074Z,1.63
2022-11-07T21:51:06.223Z,1.58
2022-11-07T21:53:37.576Z,1.83
2022-11-07T21:56:05.166Z,2.08
2022-11-07T21:58:32.290Z,1.80
2022-11-07T22:01:03.034Z,2.00
2022-11-07T22:03:51.486Z,2.13
2022-11-07T22:06:20.582Z,2.08
2022-11-07T22:08:48.821Z,1.70
2022-11-07T22:11:16.469Z,2.20
2022-11-07T22:13:44.026Z,1.67
2022-11-07T22:16:16.122Z,2.05
2022-11-07T22:18:43.382Z,2.00
2022-11-07T22:21:11.973Z,2.22
2022-11-07T22:23:39.649Z,2.15
2022-11-07T22:26:09.033Z,2.85
2022-11-07T22:28:36.301Z,1.85
2022-11-07T22:31:07.320Z,2.28
2022-11-07T22:33:34.850Z,1.80
2022-11-07T22:36:02.445Z,1.80
2022-11-07T22:38:30.846Z,2.08
2022-11-07T22:40:58.017Z,2.05
2022-11-07T22:43:25.880Z,2.10
2022-11-07T22:45:53.607Z,2.60
2022-11-07T22:48:20.768Z,2.10
2022-11-07T22:50:47.936Z,2.78
2022-11-07T22:53:15.446Z,2.13
2022-11-07T22:55:42.900Z,2.47
2022-11-07T22:58:10.062Z,2.33
2022-11-07T23:00:37.213Z,1.80
2022-11-07T23:03:04.470Z,2.25
2022-11-07T23:05:31.610Z,2.45
2022-11-07T23:07:58.789Z,1.83
2022-11-07T23:10:25.930Z,2.35
2022-11-07T23:12:53.108Z,2.30
2022-11-07T23:15:20.319Z,2.22
2022-11-07T23:17:47.563Z,2.40
2022-11-07T23:20:34.679Z,2.78
2022-11-07T23:23:03.332Z,2.95
2022-11-07T23:25:30.509Z,15.13
2022-11-07T23:27:57.710Z,4.60
2022-11-07T23:30:24.932Z,3.20
2022-11-07T23:32:52.164Z,2.78
2022-11-07T23:35:19.359Z,2.63
2022-11-07T23:37:46.522Z,2.65
2022-11-07T23:40:13.772Z,2.40
2022-11-07T23:42:40.889Z,3.17
2022-11-07T23:45:26.850Z,8.57
2022-11-07T23:48:12.771Z,2.75
2022-11-07T23:50:58.746Z,2.97
2022-11-07T23:53:44.679Z,2.65
2022-11-07T23:56:11.804Z,2.10
2022-11-07T23:58:57.446Z,2.70
